Time;durP1;ratioP1;P1;durP2;ratioP2;P2;SDS_P1;SDS_P2;PMS_P1;PMS_P2;Temp;Humidity;BMP_temperature;BMP_pressure;BME280_temperature;BME280_humidity;BME280_pressure;Samples;Min_cycle;Max_cycle;Signal;HPM_P1;HPM_P2
2023/04/03 00:01:02;;;;;;;0.60;0.50;;;17.50;74.30;;;;;;5052576;28;20078;-67
2023/04/03 00:03:28;;;;;;;1.38;0.32;;;17.50;74.30;;;;;;5034723;28;20029;-68
2023/04/03 00:05:54;;;;;;;1.42;0.40;;;17.50;74.40;;;;;;5052636;28;20017;-68
2023/04/03 00:08:20;;;;;;;0.60;0.40;;;17.50;74.30;;;;;;5051521;28;20025;-67
2023/04/03 00:10:45;;;;;;;0.40;0.40;;;17.50;74.30;;;;;;5051336;28;20465;-67
2023/04/03 00:13:11;;;;;;;0.30;0.30;;;17.50;74.40;;;;;;5051230;28;20021;-67
2023/04/03 00:15:37;;;;;;;0.30;0.30;;;17.50;74.40;;;;;;5051389;28;20115;-67
2023/04/03 00:18:03;;;;;;;0.30;0.30;;;17.50;74.40;;;;;;5051395;28;20106;-68
2023/04/03 00:20:28;;;;;;;0.45;0.30;;;17.50;74.40;;;;;;5052020;28;20033;-68
2023/04/03 00:22:54;;;;;;;0.55;0.30;;;17.50;74.50;;;;;;5055258;28;20032;-67
2023/04/03 00:25:20;;;;;;;1.10;0.43;;;17.50;74.50;;;;;;5055403;28;20029;-67
2023/04/03 00:27:45;;;;;;;0.90;0.45;;;17.40;74.50;;;;;;5056244;28;20365;-68
2023/04/03 00:30:14;;;;;;;0.32;0.32;;;17.50;74.60;;;;;;5055345;28;20025;-67
2023/04/03 00:32:40;;;;;;;0.55;0.50;;;17.50;74.50;;;;;;5055212;28;20021;-67
2023/04/03 00:35:06;;;;;;;0.55;0.35;;;17.40;74.50;;;;;;5056259;28;20029;-67
2023/04/03 00:37:31;;;;;;;0.32;0.30;;;17.40;74.60;;;;;;5055333;28;20096;-68
2023/04/03 00:39:57;;;;;;;0.30;0.30;;;17.40;74.70;;;;;;5055973;28;20128;-68
2023/04/03 00:42:23;;;;;;;0.57;0.30;;;17.40;74.60;;;;;;5055161;28;20029;-67
2023/04/03 00:44:49;;;;;;;0.30;0.30;;;17.40;74.70;;;;;;5054938;28;20029;-67
2023/04/03 00:47:16;;;;;;;1.17;0.30;;;17.40;74.70;;;;;;5056275;28;20050;-67
2023/04/03 00:49:41;;;;;;;0.50;0.40;;;17.40;74.70;;;;;;5054700;28;20028;-67
2023/04/03 00:52:09;;;;;;;0.40;0.40;;;17.40;74.70;;;;;;5054858;28;20044;-68
2023/04/03 00:54:35;;;;;;;0.20;0.20;;;17.30;74.70;;;;;;5054716;28;20100;-67
2023/04/03 00:57:00;;;;;;;0.30;0.30;;;17.30;74.70;;;;;;5054834;28;20104;-67
2023/04/03 00:59:30;;;;;;;0.25;0.25;;;17.40;74.80;;;;;;5054804;28;20151;-67
2023/04/03 01:01:55;;;;;;;0.32;0.30;;;17.30;74.80;;;;;;5070886;28;20020;-68
2023/04/03 01:04:31;;;;;;;0.30;0.30;;;17.40;74.90;;;;;;5071361;28;20488;-67
2023/04/03 01:06:58;;;;;;;1.08;0.40;;;17.30;74.80;;;;;;5084188;28;20481;-67
2023/04/03 01:09:24;;;;;;;0.55;0.40;;;17.40;74.90;;;;;;5051032;28;20105;-67
2023/04/03 01:11:50;;;;;;;0.30;0.30;;;17.30;74.90;;;;;;5067761;28;20481;-67
2023/04/03 01:14:15;;;;;;;0.40;0.40;;;17.30;75.00;;;;;;5067869;28;20061;-67
2023/04/03 01:16:41;;;;;;;0.40;0.40;;;17.30;75.00;;;;;;5035689;28;20057;-67
2023/04/03 01:19:08;;;;;;;0.28;0.28;;;17.30;75.00;;;;;;5035493;28;20072;-67
2023/04/03 01:21:46;;;;;;;0.30;0.30;;;17.30;75.00;;;;;;5033929;28;20025;-67
2023/04/03 01:24:18;;;;;;;0.40;0.38;;;17.30;74.90;;;;;;5035449;28;20034;-67
2023/04/03 01:26:44;;;;;;;0.73;0.40;;;17.30;74.90;;;;;;5067408;28;20057;-67
2023/04/03 01:29:11;;;;;;;0.30;0.30;;;17.30;75.00;;;;;;5067464;28;20045;-67
2023/04/03 01:31:49;;;;;;;0.75;0.40;;;17.30;76.10;;;;;;5035138;28;20052;-67
2023/04/03 01:34:14;;;;;;;0.52;0.30;;;17.30;75.50;;;;;;5035014;28;20596;-67
2023/04/03 01:36:40;;;;;;;0.40;0.40;;;17.30;75.00;;;;;;5035112;28;20029;-68
2023/04/03 01:39:06;;;;;;;0.40;0.40;;;17.20;75.10;;;;;;5066909;28;20037;-68
2023/04/03 01:41:32;;;;;;;0.30;0.30;;;17.30;75.10;;;;;;5067494;28;20017;-68
2023/04/03 01:43:57;;;;;;;0.50;0.43;;;17.30;75.10;;;;;;5066943;28;20029;-67
2023/04/03 01:46:23;;;;;;;0.30;0.30;;;17.30;75.10;;;;;;5067286;28;20370;-68
2023/04/03 01:48:50;;;;;;;0.43;0.43;;;17.30;75.10;;;;;;5035199;28;20170;-68
2023/04/03 01:51:15;;;;;;;0.30;0.30;;;17.30;75.10;;;;;;5067066;28;20021;-67
2023/04/03 01:53:41;;;;;;;0.40;0.40;;;17.30;75.10;;;;;;5066577;28;20050;-68
2023/04/03 01:56:07;;;;;;;0.40;0.40;;;17.30;75.20;;;;;;5050136;28;20036;-67
2023/04/03 01:58:33;;;;;;;1.30;0.30;;;17.30;75.20;;;;;;5069971;28;20488;-67
2023/04/03 02:00:59;;;;;;;0.68;0.38;;;17.20;75.10;;;;;;5053524;28;20036;-67
2023/04/03 02:03:25;;;;;;;0.40;0.40;;;17.20;75.10;;;;;;5054957;28;20090;-67
2023/04/03 02:05:50;;;;;;;0.45;0.45;;;17.20;75.00;;;;;;5036900;28;20032;-67
2023/04/03 02:08:17;;;;;;;0.50;0.50;;;17.20;75.10;;;;;;5053106;28;20025;-67
2023/04/03 02:10:44;;;;;;;1.05;0.32;;;17.20;75.20;;;;;;5053475;28;20028;-67
2023/04/03 02:13:10;;;;;;;0.40;0.40;;;17.20;75.20;;;;;;5053392;28;20377;-68
2023/04/03 02:15:38;;;;;;;1.00;0.40;;;17.20;75.20;;;;;;5054608;28;20048;-67
2023/04/03 02:18:04;;;;;;;0.50;0.50;;;17.20;75.20;;;;;;5052938;28;20044;-67
2023/04/03 02:20:30;;;;;;;0.30;0.30;;;17.20;75.20;;;;;;5053327;28;20465;-68
2023/04/03 02:22:55;;;;;;;0.35;0.30;;;17.10;75.20;;;;;;5054039;28;20029;-67
2023/04/03 02:25:21;;;;;;;1.65;0.40;;;17.20;75.30;;;;;;5054398;28;20033;-68
2023/04/03 02:27:47;;;;;;;0.43;0.28;;;17.10;75.20;;;;;;5052916;28;20043;-67
2023/04/03 02:30:14;;;;;;;0.57;0.50;;;17.20;75.30;;;;;;5053305;28;20032;-67
2023/04/03 02:32:40;;;;;;;0.38;0.38;;;17.20;75.40;;;;;;5052964;28;20025;-67
2023/04/03 02:35:06;;;;;;;0.57;0.30;;;17.10;75.30;;;;;;5054048;28;20021;-67
2023/04/03 02:37:32;;;;;;;0.30;0.30;;;17.10;75.30;;;;;;5054044;28;20473;-67
2023/04/03 02:39:58;;;;;;;0.40;0.40;;;17.10;75.40;;;;;;5052733;28;20082;-67
2023/04/03 02:42:23;;;;;;;0.32;0.32;;;17.10;75.40;;;;;;5052665;28;20100;-67
2023/04/03 02:44:49;;;;;;;1.27;0.30;;;17.10;75.40;;;;;;5054178;28;20079;-67
2023/04/03 02:47:15;;;;;;;0.40;0.40;;;17.10;75.40;;;;;;5052652;28;20021;-67
2023/04/03 02:49:43;;;;;;;0.30;0.30;;;17.10;75.40;;;;;;5052797;28;20504;-68
2023/04/03 02:52:09;;;;;;;0.82;0.40;;;17.10;75.40;;;;;;5053527;28;20037;-67
2023/04/03 02:54:34;;;;;;;0.65;0.35;;;17.10;75.40;;;;;;5053761;28;20481;-67
2023/04/03 02:57:00;;;;;;;0.52;0.40;;;17.10;75.40;;;;;;5053689;28;20029;-67
2023/04/03 02:59:26;;;;;;;0.40;0.40;;;17.10;75.40;;;;;;5052443;28;20481;-67
2023/04/03 03:01:51;;;;;;;0.55;0.30;;;17.10;75.40;;;;;;5053648;28;20025;-67
2023/04/03 03:04:17;;;;;;;0.40;0.40;;;17.10;75.50;;;;;;5068966;28;20025;-67
2023/04/03 03:06:43;;;;;;;0.30;0.30;;;17.10;75.40;;;;;;5053419;28;20036;-67
2023/04/03 03:09:08;;;;;;;0.40;0.40;;;17.10;75.50;;;;;;5052205;28;20025;-67
2023/04/03 03:11:34;;;;;;;0.40;0.40;;;17.10;75.50;;;;;;5053597;28;20143;-68
2023/04/03 03:14:00;;;;;;;0.90;0.40;;;17.00;75.50;;;;;;5052482;28;20033;-67
2023/04/03 03:16:25;;;;;;;0.38;0.30;;;17.00;75.50;;;;;;5052036;28;20504;-68
2023/04/03 03:18:51;;;;;;;0.30;0.30;;;17.00;75.50;;;;;;5052165;28;20096;-67
2023/04/03 03:21:17;;;;;;;0.43;0.30;;;17.00;75.50;;;;;;5051733;28;20037;-68
2023/04/03 03:23:42;;;;;;;0.43;0.40;;;17.00;75.60;;;;;;5053187;28;20029;-67
2023/04/03 03:26:09;;;;;;;0.50;0.45;;;17.00;75.50;;;;;;5053149;28;20029;-68
2023/04/03 03:28:36;;;;;;;1.48;0.30;;;17.00;75.60;;;;;;5034576;28;20049;-68
2023/04/03 03:31:01;;;;;;;1.65;0.30;;;17.00;75.60;;;;;;5051868;28;20076;-68
2023/04/03 03:33:27;;;;;;;0.30;0.30;;;17.00;75.60;;;;;;5051878;28;20428;-67
2023/04/03 03:35:53;;;;;;;0.52;0.40;;;17.00;75.60;;;;;;5052833;28;20032;-67
2023/04/03 03:38:19;;;;;;;0.30;0.30;;;17.00;75.70;;;;;;5051615;28;20025;-67
2023/04/03 03:40:46;;;;;;;0.40;0.40;;;17.00;75.70;;;;;;5051751;28;20029;-67
2023/04/03 03:43:12;;;;;;;0.40;0.40;;;17.00;75.70;;;;;;5051437;28;20059;-67
2023/04/03 03:45:37;;;;;;;0.30;0.30;;;17.00;75.70;;;;;;5053004;28;20025;-67
2023/04/03 03:48:03;;;;;;;0.40;0.40;;;17.00;75.70;;;;;;5052898;28;20096;-68
2023/04/03 03:50:29;;;;;;;0.35;0.35;;;17.00;75.70;;;;;;5051623;28;20487;-67
2023/04/03 03:52:55;;;;;;;1.20;0.30;;;16.90;75.70;;;;;;5052598;28;20045;-67
2023/04/03 03:55:21;;;;;;;2.45;0.40;;;16.90;75.70;;;;;;5052377;28;20037;-67
2023/04/03 03:57:46;;;;;;;0.88;0.30;;;16.90;75.70;;;;;;5052793;28;20025;-68
2023/04/03 04:00:12;;;;;;;0.30;0.30;;;16.90;75.70;;;;;;5052633;28;20035;-67
2023/04/03 04:02:38;;;;;;;0.35;0.30;;;16.90;75.80;;;;;;5051332;28;20028;-68
2023/04/03 04:05:04;;;;;;;0.65;0.50;;;16.90;75.70;;;;;;5051173;28;20032;-67
2023/04/03 04:07:29;;;;;;;0.35;0.20;;;17.00;75.80;;;;;;5051685;28;20088;-67
2023/04/03 04:09:55;;;;;;;0.25;0.25;;;16.90;75.70;;;;;;5052564;28;20104;-67
2023/04/03 04:12:21;;;;;;;0.88;0.40;;;16.90;75.80;;;;;;5052587;28;20053;-68
2023/04/03 04:14:47;;;;;;;0.65;0.30;;;16.90;75.90;;;;;;5051522;28;20057;-68
2023/04/03 04:17:15;;;;;;;0.52;0.40;;;16.90;75.80;;;;;;5052623;28;20432;-67
2023/04/03 04:19:41;;;;;;;0.50;0.47;;;16.90;75.90;;;;;;5051183;28;20438;-67
2023/04/03 04:22:06;;;;;;;0.40;0.40;;;17.00;75.90;;;;;;5051239;28;20112;-67
2023/04/03 04:24:32;;;;;;;0.70;0.30;;;16.90;75.90;;;;;;5052560;28;20112;-67
2023/04/03 04:26:58;;;;;;;1.35;0.50;;;16.90;75.80;;;;;;5051219;28;20103;-67
2023/04/03 04:29:23;;;;;;;0.30;0.30;;;16.90;75.90;;;;;;5052485;28;20056;-67
2023/04/03 04:31:49;;;;;;;0.30;0.30;;;16.90;75.90;;;;;;5051436;28;20023;-68
2023/04/03 04:34:15;;;;;;;0.60;0.45;;;16.90;75.90;;;;;;5051033;28;20029;-67
2023/04/03 04:36:41;;;;;;;0.50;0.47;;;16.90;75.90;;;;;;5052256;28;20025;-67
2023/04/03 04:39:06;;;;;;;0.30;0.30;;;16.90;76.00;;;;;;5052213;28;20036;-67
2023/04/03 04:41:32;;;;;;;0.77;0.50;;;16.90;75.90;;;;;;5051101;28;20035;-67
2023/04/03 04:43:58;;;;;;;0.50;0.40;;;16.90;76.00;;;;;;5052113;28;20485;-67
2023/04/03 04:46:23;;;;;;;0.45;0.45;;;16.90;76.00;;;;;;5051089;28;20028;-67
2023/04/03 04:48:49;;;;;;;0.30;0.30;;;16.90;76.00;;;;;;5051016;28;20021;-68
2023/04/03 04:51:15;;;;;;;1.10;0.60;;;16.90;76.00;;;;;;5052153;28;20022;-67
2023/04/03 04:53:41;;;;;;;0.40;0.40;;;16.90;75.90;;;;;;5050909;28;20101;-67
2023/04/03 04:56:06;;;;;;;0.80;0.50;;;16.80;75.90;;;;;;5051061;28;20021;-68
2023/04/03 04:58:32;;;;;;;0.30;0.30;;;16.80;75.90;;;;;;5050839;28;20060;-67
2023/04/03 05:01:02;;;;;;;0.50;0.50;;;16.80;76.00;;;;;;5050684;28;20025;-67
2023/04/03 05:03:28;;;;;;;0.40;0.38;;;16.80;76.00;;;;;;5034786;28;20063;-67
2023/04/03 05:05:53;;;;;;;0.30;0.20;;;16.90;76.10;;;;;;5050877;28;20061;-67
2023/04/03 05:08:19;;;;;;;0.30;0.30;;;16.80;76.10;;;;;;5052706;28;20032;-68
2023/04/03 05:10:45;;;;;;;0.63;0.50;;;16.80;76.10;;;;;;5054808;28;20028;-67
2023/04/03 05:13:11;;;;;;;0.40;0.40;;;16.80;76.10;;;;;;5069588;28;20021;-68
2023/04/03 05:15:36;;;;;;;0.47;0.40;;;16.80;76.20;;;;;;5053705;28;20096;-68
2023/04/03 05:18:02;;;;;;;0.40;0.30;;;16.80;76.20;;;;;;5054711;28;20056;-67
2023/04/03 05:20:28;;;;;;;0.35;0.35;;;16.80;76.20;;;;;;5055030;28;20049;-68
2023/04/03 05:22:53;;;;;;;1.13;0.50;;;16.80;76.20;;;;;;5053833;28;20053;-68
2023/04/03 05:25:19;;;;;;;1.20;0.30;;;16.80;76.20;;;;;;5053422;28;20111;-67
2023/04/03 05:27:45;;;;;;;0.30;0.30;;;16.80;76.20;;;;;;5053705;28;20449;-67
2023/04/03 05:30:11;;;;;;;1.17;0.73;;;16.80;76.20;;;;;;5053435;28;20504;-68
2023/04/03 05:32:36;;;;;;;0.32;0.32;;;16.80;76.20;;;;;;5053454;28;20036;-68
2023/04/03 05:35:02;;;;;;;0.30;0.30;;;16.80;76.20;;;;;;5054541;28;20111;-67
2023/04/03 05:37:28;;;;;;;1.10;0.30;;;16.80;77.30;;;;;;5053636;28;20059;-67
2023/04/03 05:39:54;;;;;;;0.40;0.40;;;16.80;76.40;;;;;;5053527;28;20139;-67
2023/04/03 05:42:19;;;;;;;0.52;0.40;;;16.80;76.30;;;;;;5054366;28;20552;-67
2023/04/03 05:44:47;;;;;;;0.32;0.32;;;16.80;76.30;;;;;;5054359;28;20075;-67
2023/04/03 05:47:12;;;;;;;0.38;0.38;;;16.80;76.30;;;;;;5054299;28;20021;-67
2023/04/03 05:49:40;;;;;;;0.55;0.30;;;16.80;76.30;;;;;;5053407;28;20039;-67
2023/04/03 05:52:11;;;;;;;0.68;0.40;;;16.80;76.30;;;;;;5053012;28;20041;-67
2023/04/03 05:54:37;;;;;;;0.82;0.40;;;16.80;76.40;;;;;;5053184;28;20021;-68
2023/04/03 05:57:02;;;;;;;0.40;0.40;;;16.80;76.30;;;;;;5054270;28;20032;-67
2023/04/03 05:59:28;;;;;;;0.30;0.30;;;16.80;76.20;;;;;;5052637;28;20036;-67
2023/04/03 06:01:54;;;;;;;0.55;0.40;;;16.80;75.80;;;;;;5054150;28;20035;-68
2023/04/03 06:04:20;;;;;;;0.40;0.40;;;16.80;75.40;;;;;;5054057;28;20086;-67
2023/04/03 06:06:57;;;;;;;0.30;0.30;;;16.80;75.20;;;;;;5052038;28;20017;-67
2023/04/03 06:09:24;;;;;;;0.32;0.32;;;16.70;74.50;;;;;;5049411;28;20014;-67
2023/04/03 06:11:50;;;;;;;0.57;0.50;;;16.70;74.40;;;;;;5084206;28;20021;-67
2023/04/03 06:14:15;;;;;;;1.33;0.77;;;16.80;74.20;;;;;;5053760;28;20032;-67
2023/04/03 06:16:41;;;;;;;1.30;0.60;;;16.70;73.90;;;;;;5053846;28;20554;-68
2023/04/03 06:19:10;;;;;;;1.63;0.63;;;16.70;73.80;;;;;;5052310;28;20028;-68
2023/04/03 06:21:36;;;;;;;1.48;0.52;;;16.70;73.40;;;;;;5053905;28;20104;-68
2023/04/03 06:24:03;;;;;;;1.27;0.60;;;16.70;73.40;;;;;;5035785;28;20112;-72
2023/04/03 06:26:29;;;;;;;0.80;0.57;;;16.70;73.20;;;;;;5052429;28;20428;-71
2023/04/03 06:28:54;;;;;;;0.50;0.50;;;16.70;73.10;;;;;;5051948;28;20100;-71
2023/04/03 06:31:20;;;;;;;3.15;0.75;;;16.70;73.10;;;;;;5054091;28;20100;-71
2023/04/03 06:33:46;;;;;;;2.13;0.52;;;16.70;73.10;;;;;;5054063;28;20028;-71
2023/04/03 06:36:12;;;;;;;2.47;0.70;;;16.70;73.20;;;;;;5052850;28;20478;-72
2023/04/03 06:38:37;;;;;;;1.38;0.65;;;16.60;73.20;;;;;;5052800;28;20021;-71
2023/04/03 06:41:03;;;;;;;4.32;0.88;;;16.70;73.50;;;;;;5036228;28;20530;-71
2023/04/03 06:43:31;;;;;;;4.85;0.90;;;16.60;73.60;;;;;;5052383;28;20051;-71
2023/04/03 06:45:56;;;;;;;9.32;1.20;;;16.70;73.80;;;;;;5052778;28;20028;-71
2023/04/03 06:48:22;;;;;;;9.95;1.73;;;16.60;73.80;;;;;;5052302;28;20492;-72
2023/04/03 06:50:48;;;;;;;21.77;1.95;;;16.70;74.20;;;;;;5050329;28;20545;-72
2023/04/03 06:53:14;;;;;;;5.22;1.17;;;16.60;75.20;;;;;;5050585;28;20119;-72
2023/04/03 06:55:41;;;;;;;4.07;1.30;;;16.60;75.80;;;;;;5050754;28;20025;-72
2023/04/03 06:58:06;;;;;;;8.98;2.33;;;16.70;76.30;;;;;;5050369;28;20021;-72
2023/04/03 07:00:32;;;;;;;4.15;1.35;;;16.70;76.50;;;;;;5050184;28;20036;-72
2023/04/03 07:02:58;;;;;;;5.78;1.63;;;16.70;76.80;;;;;;5083887;28;20021;-72
2023/04/03 07:05:24;;;;;;;13.70;1.40;;;16.70;76.80;;;;;;5084313;28;20033;-72
2023/04/03 07:07:51;;;;;;;9.07;1.63;;;16.70;76.90;;;;;;5057416;28;20021;-72
2023/04/03 07:10:16;;;;;;;6.80;1.95;;;16.70;76.90;;;;;;5064836;28;20021;-72
2023/04/03 07:12:42;;;;;;;2.95;1.20;;;16.70;77.00;;;;;;5048001;28;20029;-72
2023/04/03 07:15:08;;;;;;;5.20;1.30;;;16.70;77.10;;;;;;5032884;28;20464;-72
2023/04/03 07:17:35;;;;;;;2.70;1.13;;;16.70;77.00;;;;;;5064765;28;20022;-72
2023/04/03 07:20:01;;;;;;;9.23;2.75;;;16.70;77.00;;;;;;5064829;28;20056;-72
2023/04/03 07:22:27;;;;;;;4.03;1.42;;;16.70;77.00;;;;;;5032656;28;20465;-72
2023/04/03 07:24:52;;;;;;;3.70;1.48;;;16.70;76.80;;;;;;5032683;28;20033;-72
2023/04/03 07:27:18;;;;;;;4.25;1.20;;;16.70;76.80;;;;;;5032404;28;20032;-72
2023/04/03 07:29:44;;;;;;;5.88;1.30;;;16.70;76.80;;;;;;5064212;28;20101;-72
2023/04/03 07:32:10;;;;;;;4.63;1.80;;;16.70;76.70;;;;;;5032686;28;20053;-72
2023/04/03 07:34:35;;;;;;;3.38;1.27;;;16.70;76.70;;;;;;5032538;28;20112;-72
2023/04/03 07:37:02;;;;;;;4.82;1.35;;;16.70;76.70;;;;;;5047900;28;20084;-72
2023/04/03 07:39:28;;;;;;;3.55;1.40;;;16.70;76.60;;;;;;5032405;28;20025;-72
2023/04/03 07:41:55;;;;;;;7.68;1.35;;;16.70;76.50;;;;;;5032294;28;20039;-72
2023/04/03 07:44:21;;;;;;;4.07;1.00;;;16.70;76.50;;;;;;5047448;28;20029;-72
2023/04/03 07:46:48;;;;;;;2.95;1.15;;;16.60;76.40;;;;;;5047745;28;20032;-72
2023/04/03 07:49:14;;;;;;;2.72;1.30;;;16.60;76.40;;;;;;5063998;28;20044;-72
2023/04/03 07:51:40;;;;;;;2.90;1.17;;;16.60;76.30;;;;;;5064225;28;20481;-72
2023/04/03 07:54:06;;;;;;;2.80;1.08;;;16.60;76.20;;;;;;5064004;28;20054;-72
2023/04/03 07:56:31;;;;;;;3.00;1.05;;;16.60;76.20;;;;;;5032120;28;20026;-72
2023/04/03 07:58:57;;;;;;;2.58;0.98;;;16.60;76.20;;;;;;5070789;28;20029;-72
2023/04/03 08:01:23;;;;;;;3.00;1.20;;;16.60;76.20;;;;;;5034259;28;20115;-72
2023/04/03 08:03:49;;;;;;;2.47;0.90;;;16.60;76.10;;;;;;5050748;28;20033;-72
2023/04/03 08:06:15;;;;;;;3.85;1.30;;;16.60;76.10;;;;;;5052212;28;20036;-72
2023/04/03 08:08:41;;;;;;;2.47;1.00;;;16.60;76.10;;;;;;5051950;28;20534;-72
2023/04/03 08:11:07;;;;;;;2.17;1.10;;;16.60;76.10;;;;;;5050860;28;20097;-72
2023/04/03 08:13:34;;;;;;;3.75;0.98;;;16.60;76.00;;;;;;5034333;28;20132;-72
2023/04/03 08:16:16;;;;;;;2.17;0.88;;;16.60;76.00;;;;;;5050819;28;20112;-72
2023/04/03 08:18:42;;;;;;;2.63;0.80;;;16.60;76.00;;;;;;5050640;28;20485;-72
2023/04/03 08:21:11;;;;;;;2.50;1.35;;;16.60;76.00;;;;;;5050860;28;20028;-72
2023/04/03 08:23:37;;;;;;;3.17;1.08;;;16.60;75.90;;;;;;5050760;28;20037;-72
2023/04/03 08:26:07;;;;;;;3.22;1.10;;;16.60;76.00;;;;;;5050702;28;20021;-72
2023/04/03 08:28:33;;;;;;;2.45;0.93;;;16.60;76.00;;;;;;5050624;28;20031;-72
2023/04/03 08:31:04;;;;;;;3.35;1.00;;;16.60;75.90;;;;;;5051852;28;20017;-72
2023/04/03 08:33:30;;;;;;;4.57;1.27;;;16.60;75.90;;;;;;5050771;28;20035;-72
2023/04/03 08:35:55;;;;;;;3.65;0.90;;;16.50;75.90;;;;;;5050654;28;20025;-72
2023/04/03 08:38:21;;;;;;;1.38;0.77;;;16.60;75.90;;;;;;5051730;28;20029;-72
2023/04/03 08:40:47;;;;;;;1.38;0.90;;;16.60;75.90;;;;;;5050319;28;20025;-72
2023/04/03 08:43:27;;;;;;;3.55;1.30;;;16.60;75.90;;;;;;5054158;28;20025;-72
2023/04/03 08:45:56;;;;;;;3.33;0.90;;;16.60;75.90;;;;;;5055659;28;20032;-72
2023/04/03 08:48:28;;;;;;;2.00;0.90;;;16.50;75.80;;;;;;5054306;28;20029;-72
2023/04/03 08:50:56;;;;;;;3.07;1.03;;;16.60;75.90;;;;;;5054319;28;20083;-72
2023/04/03 08:53:32;;;;;;;2.33;1.17;;;16.60;75.80;;;;;;5053793;28;20287;-72
2023/04/03 08:55:57;;;;;;;1.80;0.90;;;16.50;75.80;;;;;;5054194;28;20028;-72
2023/04/03 08:58:25;;;;;;;4.00;1.00;;;16.60;75.80;;;;;;5055065;28;20025;-72
2023/04/03 09:00:58;;;;;;;6.25;1.17;;;16.50;75.80;;;;;;5070783;28;20021;-72
2023/04/03 09:03:24;;;;;;;1.98;1.05;;;16.50;75.70;;;;;;5069529;28;20397;-72
2023/04/03 09:05:54;;;;;;;2.15;0.80;;;16.50;75.80;;;;;;5070752;28;20021;-72
2023/04/03 09:08:30;;;;;;;1.10;0.68;;;16.50;75.80;;;;;;5072240;28;20026;-72
2023/04/03 09:11:21;;;;;;;2.17;1.00;;;16.50;75.80;;;;;;5050384;28;20029;-72
2023/04/03 09:14:15;;;;;;;1.33;0.98;;;16.50;75.70;;;;;;5035177;28;20025;-72
2023/04/03 09:16:56;;;;;;;3.45;1.08;;;16.50;75.70;;;;;;5064065;28;20029;-72
2023/04/03 09:19:31;;;;;;;2.40;0.88;;;16.50;75.70;;;;;;5049860;28;20025;-72
2023/04/03 09:21:57;;;;;;;1.50;0.80;;;16.50;75.70;;;;;;5035297;28;20025;-72
2023/04/03 09:24:23;;;;;;;1.85;0.70;;;16.50;75.80;;;;;;5067029;28;20036;-72
2023/04/03 09:26:58;;;;;;;1.92;0.90;;;16.50;75.80;;;;;;5050407;28;20097;-72
2023/04/03 09:29:24;;;;;;;1.48;0.80;;;16.50;75.80;;;;;;5049291;28;20087;-72
2023/04/03 09:31:57;;;;;;;3.15;0.88;;;16.50;75.70;;;;;;5033411;28;20017;-72
2023/04/03 09:34:33;;;;;;;1.67;0.70;;;16.50;75.80;;;;;;5049193;28;20083;-72
2023/04/03 09:37:05;;;;;;;1.33;0.75;;;16.50;75.70;;;;;;5049236;28;20057;-72
2023/04/03 09:39:32;;;;;;;2.03;0.70;;;16.40;75.70;;;;;;5033394;28;20036;-72
2023/04/03 09:42:07;;;;;;;1.42;0.82;;;16.50;75.80;;;;;;5050019;28;20076;-72
2023/04/03 09:44:36;;;;;;;2.90;0.93;;;16.50;75.70;;;;;;5065867;28;20053;-72
2023/04/03 09:47:36;;;;;;;2.92;0.77;;;16.50;75.70;;;;;;5033264;28;20045;-72
2023/04/03 09:50:13;;;;;;;1.73;0.70;;;16.50;75.80;;;;;;5036756;28;20040;-72
2023/04/03 09:52:40;;;;;;;2.47;0.60;;;16.50;75.70;;;;;;5033769;28;20125;-72
2023/04/03 09:55:41;;;;;;;1.73;0.85;;;16.50;75.70;;;;;;5065768;28;20025;-72
2023/04/03 09:58:25;;;;;;;2.80;0.80;;;16.40;75.60;;;;;;5036520;28;20038;-72
2023/04/03 10:00:55;;;;;;;1.30;0.73;;;16.50;75.80;;;;;;5049099;28;20025;-72
2023/04/03 10:03:35;;;;;;;0.45;0.43;;;16.40;75.70;;;;;;5033283;28;20025;-71
2023/04/03 10:06:02;;;;;;;1.23;0.55;;;16.50;75.80;;;;;;5050748;28;20434;-72
2023/04/03 10:08:33;;;;;;;1.08;0.57;;;16.50;75.80;;;;;;5065767;28;20107;-72
2023/04/03 10:11:25;;;;;;;2.05;0.55;;;16.50;75.80;;;;;;5053073;28;20025;-72
2023/04/03 10:13:59;;;;;;;1.65;1.02;;;16.50;75.80;;;;;;5051514;28;20572;-72
2023/04/03 10:16:48;;;;;;;1.23;0.75;;;16.50;75.80;;;;;;5052738;28;20032;-72
2023/04/03 10:19:23;;;;;;;2.63;0.85;;;16.50;75.80;;;;;;5052568;28;20037;-72
2023/04/03 10:21:55;;;;;;;1.63;0.80;;;16.50;75.80;;;;;;5052335;28;20037;-72
2023/04/03 10:24:29;;;;;;;2.10;1.00;;;16.50;75.80;;;;;;5052726;28;20025;-72
2023/04/03 10:26:58;;;;;;;1.77;0.88;;;16.40;75.80;;;;;;5052626;28;20021;-72
2023/04/03 10:29:42;;;;;;;1.63;0.70;;;16.40;75.80;;;;;;5036015;28;20025;-71
2023/04/03 10:32:18;;;;;;;1.52;0.70;;;16.50;75.90;;;;;;5036993;28;20032;-72
2023/04/03 10:34:44;;;;;;;1.13;0.75;;;16.40;75.80;;;;;;5053362;28;20032;-72
2023/04/03 10:37:22;;;;;;;0.60;0.60;;;16.40;75.80;;;;;;5052296;28;20033;-72
2023/04/03 10:39:56;;;;;;;0.82;0.70;;;16.40;75.80;;;;;;5052241;28;20028;-72
2023/04/03 10:42:39;;;;;;;0.93;0.80;;;16.40;75.70;;;;;;5052295;28;20029;-72
2023/04/03 10:45:15;;;;;;;1.38;0.75;;;16.40;75.70;;;;;;5052172;28;20056;-72
2023/04/03 10:47:44;;;;;;;1.65;0.73;;;16.40;75.80;;;;;;5052140;28;20112;-72
2023/04/03 10:50:25;;;;;;;1.10;0.70;;;16.40;75.80;;;;;;5052027;28;20039;-72
2023/04/03 10:53:00;;;;;;;1.02;0.68;;;16.40;75.70;;;;;;5053039;28;20045;-72
2023/04/03 10:55:34;;;;;;;0.90;0.60;;;16.40;75.80;;;;;;5051962;28;20020;-72
2023/04/03 10:58:00;;;;;;;2.00;0.85;;;16.40;75.90;;;;;;5051962;28;20489;-72
2023/04/03 11:00:33;;;;;;;1.65;0.90;;;16.40;75.70;;;;;;5051960;28;20029;-72
2023/04/03 11:03:02;;;;;;;1.00;0.65;;;16.40;75.80;;;;;;5051967;28;20052;-71
2023/04/03 11:05:49;;;;;;;1.52;0.70;;;16.40;75.80;;;;;;5051559;28;20025;-72
2023/04/03 11:08:17;;;;;;;1.92;0.90;;;16.40;76.80;;;;;;5037484;28;20036;-71
2023/04/03 11:10:45;;;;;;;1.40;0.68;;;16.40;75.80;;;;;;5032899;28;20045;-72
2023/04/03 11:13:17;;;;;;;0.63;0.60;;;16.40;75.80;;;;;;5048395;28;20026;-72
2023/04/03 11:15:44;;;;;;;0.85;0.63;;;16.40;75.80;;;;;;5064790;28;20029;-72
2023/04/03 11:18:18;;;;;;;0.88;0.65;;;16.40;75.80;;;;;;5047994;28;20057;-72
2023/04/03 11:20:48;;;;;;;0.75;0.75;;;16.40;75.80;;;;;;5047675;28;20033;-71
2023/04/03 11:23:26;;;;;;;1.20;0.73;;;16.40;75.80;;;;;;5047561;28;20029;-72
2023/04/03 11:25:54;;;;;;;0.75;0.75;;;16.40;75.90;;;;;;5064778;28;20061;-72
2023/04/03 11:28:19;;;;;;;0.98;0.75;;;16.40;75.90;;;;;;5048130;28;20013;-72
2023/04/03 11:31:02;;;;;;;2.20;0.65;;;16.40;75.90;;;;;;5064638;28;20546;-72
2023/04/03 11:33:33;;;;;;;1.25;0.75;;;16.40;75.80;;;;;;5063784;28;20022;-72
2023/04/03 11:36:17;;;;;;;0.77;0.77;;;16.40;75.90;;;;;;5032543;28;20401;-72
2023/04/03 11:38:44;;;;;;;1.00;0.90;;;16.40;75.80;;;;;;5032432;28;20105;-72
2023/04/03 11:41:10;;;;;;;0.80;0.80;;;16.40;75.90;;;;;;5047878;28;20036;-71
2023/04/03 11:43:41;;;;;;;1.60;0.82;;;16.40;75.90;;;;;;5047696;28;20022;-72
2023/04/03 11:46:06;;;;;;;1.67;1.00;;;16.40;75.90;;;;;;5047657;28;20053;-72
2023/04/03 11:48:35;;;;;;;1.48;0.85;;;16.40;75.90;;;;;;5047705;28;20048;-72
2023/04/03 11:51:27;;;;;;;0.82;0.77;;;16.40;75.90;;;;;;5032290;28;20097;-72
2023/04/03 11:53:53;;;;;;;0.98;0.82;;;16.40;75.90;;;;;;5031443;28;20057;-71
2023/04/03 11:56:27;;;;;;;1.60;1.00;;;16.40;75.90;;;;;;5047789;28;20609;-72
2023/04/03 11:59:16;;;;;;;1.00;0.90;;;16.40;76.00;;;;;;5038362;28;20052;-72
2023/04/03 12:01:52;;;;;;;1.33;1.00;;;16.40;75.90;;;;;;5051834;28;20039;-72
2023/04/03 12:04:20;;;;;;;0.95;0.90;;;16.40;76.00;;;;;;5051168;28;20116;-72
2023/04/03 12:06:46;;;;;;;0.70;0.63;;;16.40;75.90;;;;;;5048990;28;20047;-72
2023/04/03 12:09:41;;;;;;;1.00;0.90;;;16.40;76.00;;;;;;5032254;28;20049;-72
2023/04/03 12:12:27;;;;;;;1.95;1.00;;;16.40;76.00;;;;;;5030047;28;20029;-71
2023/04/03 12:14:53;;;;;;;1.67;1.20;;;16.40;76.00;;;;;;5013584;28;20095;-72
2023/04/03 12:17:26;;;;;;;1.08;0.90;;;16.40;76.00;;;;;;4999182;28;20041;-72
2023/04/03 12:19:51;;;;;;;;;;;16.40;76.10;;;;;;5017970;28;20036;-72
2023/04/03 12:22:20;;;;;;;1.10;1.00;;;16.40;76.00;;;;;;5034120;28;19905;-71
2023/04/03 12:24:48;;;;;;;1.35;1.25;;;16.40;77.10;;;;;;5001756;28;20031;-71
2023/04/03 12:27:17;;;;;;;1.45;1.23;;;16.40;76.10;;;;;;5017697;28;20151;-71
2023/04/03 12:30:01;;;;;;;1.10;1.00;;;16.40;76.20;;;;;;5017468;28;20120;-72
2023/04/03 12:32:42;;;;;;;1.15;1.02;;;16.40;76.20;;;;;;5033544;28;20030;-71
2023/04/03 12:35:33;;;;;;;1.15;1.00;;;16.40;76.20;;;;;;5018019;28;20037;-71
2023/04/03 12:38:11;;;;;;;1.10;1.00;;;16.40;76.20;;;;;;5033514;28;20044;-71
2023/04/03 12:40:42;;;;;;;1.38;1.10;;;16.40;76.30;;;;;;5033759;28;20037;-72
2023/04/03 12:43:26;;;;;;;2.17;1.20;;;16.40;76.20;;;;;;5033591;28;20075;-71
2023/04/03 12:45:52;;;;;;;1.25;1.15;;;16.40;76.30;;;;;;5033189;28;20145;-71
2023/04/03 12:48:22;;;;;;;1.02;0.98;;;16.40;76.30;;;;;;5019343;28;20124;-72
2023/04/03 12:50:47;;;;;;;1.33;1.23;;;16.40;76.30;;;;;;5050531;28;20113;-71
2023/04/03 12:53:18;;;;;;;1.02;1.02;;;16.40;76.30;;;;;;5050800;28;20479;-71
2023/04/03 12:55:43;;;;;;;1.27;1.00;;;16.50;76.40;;;;;;5067490;28;20017;-71